Time;durP1;ratioP1;P1;durP2;ratioP2;P2;SDS_P1;SDS_P2;PMS_P1;PMS_P2;Temp;Humidity;BMP_temperature;BMP_pressure;BME280_temperature;BME280_humidity;BME280_pressure;Samples;Min_cycle;Max_cycle;Signal;HPM_P1;HPM_P2
2021/08/17 00:00:04;;;;;;;4.50;4.30;;;;;;;11.46;89.81;101350.16;4437399;32;20086;-67
2021/08/17 00:02:30;;;;;;;4.70;4.50;;;;;;;11.51;90.26;101363.09;4407550;32;20562;-67
2021/08/17 00:04:55;;;;;;;4.70;4.50;;;;;;;11.43;89.96;101350.28;4420744;32;20068;-67
2021/08/17 00:07:22;;;;;;;4.70;4.50;;;;;;;11.40;90.33;101350.41;4436379;32;20094;-68
2021/08/17 00:09:47;;;;;;;4.60;4.40;;;;;;;11.39;90.62;101354.00;4427000;32;20074;-68
2021/08/17 00:12:12;;;;;;;5.25;5.05;;;;;;;11.33;91.52;101354.25;4434053;32;20463;-67
2021/08/17 00:14:38;;;;;;;4.53;4.32;;;;;;;11.35;91.19;101360.31;4419253;32;20384;-67
2021/08/17 00:17:03;;;;;;;4.50;4.30;;;;;;;11.21;91.71;101334.63;4434298;32;20078;-67
2021/08/17 00:19:28;;;;;;;4.90;4.70;;;;;;;11.31;91.07;101350.84;4424145;32;20060;-67
2021/08/17 00:21:54;;;;;;;5.00;4.80;;;;;;;11.26;91.34;101351.03;4434949;32;20591;-67
2021/08/17 00:24:19;;;;;;;4.80;4.60;;;;;;;11.23;92.34;101345.94;4422444;32;20080;-67
2021/08/17 00:26:45;;;;;;;7.00;6.70;;;;;;;11.24;92.07;101342.37;4430065;32;20526;-67
2021/08/17 00:29:10;;;;;;;4.93;4.72;;;;;;;11.21;92.62;101350.41;4422686;32;20078;-67
2021/08/17 00:31:35;;;;;;;6.28;5.97;;;;;;;11.20;92.58;101351.31;4437190;32;20167;-67
2021/08/17 00:34:01;;;;;;;4.93;4.70;;;;;;;11.10;92.64;101345.59;4422919;32;20077;-68
2021/08/17 00:36:29;;;;;;;4.95;4.75;;;;;;;10.80;93.50;101276.06;4419348;32;20087;-67
2021/08/17 00:38:54;;;;;;;4.87;4.68;;;;;;;11.27;93.44;101355.37;4415856;32;20517;-67
2021/08/17 00:41:19;;;;;;;4.50;4.30;;;;;;;11.25;93.33;101346.72;4439085;32;20551;-67
2021/08/17 00:43:45;;;;;;;8.65;6.15;;;;;;;11.26;93.21;101352.81;4416471;32;20423;-67
2021/08/17 00:46:11;;;;;;;4.70;4.50;;;;;;;11.27;93.25;101352.75;4419579;32;20104;-67
2021/08/17 00:48:37;;;;;;;6.40;6.10;;;;;;;11.24;93.83;101354.66;4422113;32;20071;-64
2021/08/17 00:51:02;;;;;;;4.80;4.60;;;;;;;11.17;94.04;101356.72;4430683;32;20099;-67
2021/08/17 00:53:29;;;;;;;4.53;4.32;;;;;;;11.16;93.99;101352.37;4424082;32;20083;-67
2021/08/17 00:55:54;;;;;;;4.57;4.37;;;;;;;11.15;94.02;101354.16;4432696;32;20804;-67
2021/08/17 00:58:20;;;;;;;4.70;4.50;;;;;;;11.26;93.60;101352.81;4418453;32;20095;-68
2021/08/17 01:00:46;;;;;;;4.70;4.50;;;;;;;11.25;94.20;101345.87;4426436;32;20098;-68
2021/08/17 01:03:12;;;;;;;4.75;4.45;;;;;;;11.22;94.11;101352.09;4419515;32;20079;-67
2021/08/17 01:05:37;;;;;;;5.30;5.00;;;;;;;11.18;93.96;101346.16;4417611;32;20064;-68
2021/08/17 01:08:03;;;;;;;4.65;4.45;;;;;;;11.18;94.25;101345.28;4421163;32;20086;-68
2021/08/17 01:10:28;;;;;;;4.60;4.40;;;;;;;11.22;94.03;101349.47;4430179;32;20751;-67
2021/08/17 01:12:53;;;;;;;4.93;4.72;;;;;;;11.24;94.28;101349.41;4420734;32;20565;-68
2021/08/17 01:15:19;;;;;;;5.35;5.05;;;;;;;11.26;94.56;101344.94;4434158;32;20075;-68
2021/08/17 01:17:44;;;;;;;6.65;6.35;;;;;;;11.24;94.52;101350.25;4423886;32;20076;-68
2021/08/17 01:20:15;;;;;;;4.87;4.68;;;;;;;11.29;95.12;101347.44;4435413;32;20438;-68
2021/08/17 01:22:44;;;;;;;7.12;6.82;;;;;;;11.35;95.22;101344.53;4446965;31;20099;-68
2021/08/17 01:25:10;;;;;;;4.80;4.60;;;;;;;11.42;94.87;101345.94;4437049;32;20055;-68
2021/08/17 01:27:36;;;;;;;6.20;5.90;;;;;;;11.46;94.49;101346.66;4419174;32;20153;-68
2021/08/17 01:30:02;;;;;;;4.55;4.35;;;;;;;11.33;94.57;101322.72;4429775;32;20472;-68
2021/08/17 01:32:28;;;;;;;4.93;4.70;;;;;;;11.49;94.48;101351.81;4428136;32;20558;-67
2021/08/17 01:34:54;;;;;;;5.07;4.87;;;;;;;11.46;94.25;101352.78;4432163;32;20828;-68
2021/08/17 01:37:19;;;;;;;4.70;4.50;;;;;;;11.46;94.65;101344.88;4435365;32;20079;-68
2021/08/17 01:40:00;;;;;;;4.50;4.30;;;;;;;11.43;93.72;101346.81;4420500;32;20996;-67
2021/08/17 01:42:26;;;;;;;4.93;4.62;;;;;;;11.42;94.37;101351.19;4419152;32;20087;-66
2021/08/17 01:44:51;;;;;;;4.50;4.30;;;;;;;11.37;94.11;101334.81;4433394;32;20067;-67
2021/08/17 01:47:17;;;;;;;4.70;4.50;;;;;;;11.37;94.56;101335.66;4420136;32;20456;-68
2021/08/17 01:49:42;;;;;;;6.85;6.55;;;;;;;11.39;93.80;101346.09;4436264;31;20111;-68
2021/08/17 01:52:07;;;;;;;4.32;4.12;;;;;;;11.40;94.60;101358.31;4423317;32;20057;-67
2021/08/17 01:54:33;;;;;;;5.40;5.15;;;;;;;11.41;94.44;101341.63;4430730;32;20609;-68
2021/08/17 01:56:58;;;;;;;4.50;4.30;;;;;;;11.38;94.76;101344.38;4417840;32;20088;-68
2021/08/17 01:59:24;;;;;;;4.60;4.40;;;;;;;11.36;94.26;101344.44;4426807;32;20090;-68
2021/08/17 02:01:49;;;;;;;6.18;5.87;;;;;;;11.24;94.53;101331.84;4420198;31;20143;-68
2021/08/17 02:04:14;;;;;;;5.05;4.68;;;;;;;11.32;94.47;101350.75;4426831;32;20076;-67
2021/08/17 02:06:40;;;;;;;4.45;4.25;;;;;;;11.34;94.97;101343.66;4423229;32;20057;-68
2021/08/17 02:09:05;;;;;;;4.80;4.60;;;;;;;11.34;94.98;101338.41;4416185;32;20095;-68
2021/08/17 02:11:30;;;;;;;4.70;4.50;;;;;;;11.35;94.66;101341.91;4407577;32;20479;-68
2021/08/17 02:13:56;;;;;;;4.80;4.50;;;;;;;11.27;95.15;101344.88;4402807;32;20075;-68
2021/08/17 02:16:21;;;;;;;4.70;4.50;;;;;;;11.26;95.71;101348.41;4418830;32;20333;-67
2021/08/17 02:18:47;;;;;;;4.50;4.30;;;;;;;10.91;95.10;101289.56;4407696;32;20064;-68
2021/08/17 02:21:12;;;;;;;4.50;4.25;;;;;;;11.25;95.48;101345.87;4428859;32;20286;-68
2021/08/17 02:23:38;;;;;;;6.95;6.65;;;;;;;11.21;95.42;101345.16;4405993;32;20060;-65
2021/08/17 02:26:04;;;;;;;4.65;4.45;;;;;;;11.22;95.23;101352.09;4426015;32;20083;-68
2021/08/17 02:28:29;;;;;;;4.60;4.40;;;;;;;11.18;95.37;101355.78;4410364;32;20601;-68
2021/08/17 02:30:55;;;;;;;4.60;4.40;;;;;;;11.18;95.66;101355.78;4420807;32;20061;-68
2021/08/17 02:33:20;;;;;;;4.60;4.40;;;;;;;11.18;95.55;101354.03;4414229;32;20145;-68
2021/08/17 02:35:46;;;;;;;6.55;6.25;;;;;;;11.08;95.41;101334.31;4403705;32;20550;-68
2021/08/17 02:38:11;;;;;;;4.60;4.40;;;;;;;11.23;95.41;101355.59;4422989;32;20088;-68
2021/08/17 02:40:37;;;;;;;6.03;5.72;;;;;;;11.18;96.11;101353.16;4408647;32;20449;-68
2021/08/17 02:43:03;;;;;;;4.82;4.62;;;;;;;11.15;95.89;101350.69;4413584;32;20592;-68
2021/08/17 02:45:28;;;;;;;4.55;4.35;;;;;;;11.15;96.68;101351.53;4408328;32;20563;-68
2021/08/17 02:48:00;;;;;;;4.97;4.78;;;;;;;11.09;96.27;101362.31;4414648;32;20093;-68
2021/08/17 02:50:25;;;;;;;4.32;4.12;;;;;;;10.71;96.05;101317.53;4408259;32;20147;-68
2021/08/17 02:52:51;;;;;;;7.00;5.55;;;;;;;11.08;96.03;101363.22;4419554;32;20714;-68
2021/08/17 02:55:16;;;;;;;4.60;4.40;;;;;;;11.02;95.51;101362.63;4411501;32;20566;-68
2021/08/17 02:57:52;;;;;;;4.47;4.28;;;;;;;11.01;95.95;101353.91;4416763;32;20631;-68
2021/08/17 03:00:18;;;;;;;4.75;4.55;;;;;;;11.02;96.32;101354.75;4418983;32;20434;-68
2021/08/17 03:02:44;;;;;;;6.80;6.47;;;;;;;11.06;96.34;101370.31;4418213;32;20069;-67
2021/08/17 03:05:09;;;;;;;5.25;4.95;;;;;;;11.02;96.02;101370.50;4408549;32;20322;-67
2021/08/17 03:07:35;;;;;;;6.10;5.82;;;;;;;10.99;96.71;101368.87;4417438;32;20525;-68
2021/08/17 03:10:00;;;;;;;4.22;4.03;;;;;;;11.00;96.01;101377.59;4416882;32;20353;-68
2021/08/17 03:12:26;;;;;;;4.55;4.32;;;;;;;10.96;96.88;101371.63;4410459;32;20072;-68
2021/08/17 03:14:51;;;;;;;6.00;5.70;;;;;;;10.93;96.16;101372.63;4421864;32;20438;-68
2021/08/17 03:17:16;;;;;;;4.45;4.25;;;;;;;10.94;96.58;101368.22;4421228;32;20446;-68
2021/08/17 03:19:42;;;;;;;7.30;6.95;;;;;;;10.91;96.27;101361.31;4405043;32;20126;-67
2021/08/17 03:22:09;;;;;;;5.20;5.00;;;;;;;10.87;97.12;101356.28;4418690;32;20507;-68
2021/08/17 03:24:34;;;;;;;5.32;5.07;;;;;;;10.90;96.34;101362.22;4431462;32;20561;-68
2021/08/17 03:26:59;;;;;;;4.90;4.70;;;;;;;10.86;96.54;101365.06;4416698;32;20064;-68
2021/08/17 03:29:25;;;;;;;5.03;4.82;;;;;;;10.92;96.34;101359.53;4412767;32;20091;-68
2021/08/17 03:31:50;;;;;;;6.10;5.80;;;;;;;10.89;97.17;101359.69;4404240;32;20068;-67
2021/08/17 03:34:15;;;;;;;4.90;4.60;;;;;;;10.82;96.39;101361.72;4437977;32;20068;-67
2021/08/17 03:36:41;;;;;;;5.07;4.87;;;;;;;10.88;96.73;101357.97;4423739;32;20156;-68
2021/08/17 03:39:06;;;;;;;4.60;4.40;;;;;;;10.90;97.29;101361.38;4432223;32;20633;-68
2021/08/17 03:41:31;;;;;;;4.62;4.43;;;;;;;10.94;97.25;101362.97;4410850;32;20242;-68
2021/08/17 03:43:57;;;;;;;4.60;4.40;;;;;;;10.98;97.05;101361.91;4421185;32;20076;-68
2021/08/17 03:46:22;;;;;;;4.93;4.72;;;;;;;10.94;96.85;101362.97;4417328;32;20076;-68
2021/08/17 03:48:47;;;;;;;6.45;6.15;;;;;;;10.90;97.32;101364.00;4415209;32;20061;-66
2021/08/17 03:51:13;;;;;;;4.57;4.32;;;;;;;10.86;97.40;101355.41;4418250;32;20966;-68
2021/08/17 03:53:38;;;;;;;7.18;6.57;;;;;;;10.82;97.22;101345.94;4421390;32;20133;-68
2021/08/17 03:56:04;;;;;;;5.43;5.03;;;;;;;10.86;97.22;101349.31;4401542;32;20060;-67
2021/08/17 03:58:29;;;;;;;4.85;4.65;;;;;;;10.38;97.09;101281.31;4409982;32;20088;-67
2021/08/17 04:00:54;;;;;;;5.00;4.80;;;;;;;10.89;97.17;101355.28;4418542;32;20556;-67
2021/08/17 04:03:20;;;;;;;4.50;4.30;;;;;;;10.89;97.05;101357.06;4439319;31;20074;-67
2021/08/17 04:05:45;;;;;;;6.80;6.50;;;;;;;10.87;97.81;101361.53;4435340;32;20096;-67
2021/08/17 04:08:11;;;;;;;4.50;4.30;;;;;;;10.82;97.21;101359.09;4421348;32;20072;-67
2021/08/17 04:10:37;;;;;;;6.32;6.03;;;;;;;10.79;97.36;101353.97;4425702;32;20590;-68
2021/08/17 04:13:03;;;;;;;4.68;4.47;;;;;;;10.80;97.71;101355.66;4412124;32;20641;-67
2021/08/17 04:15:28;;;;;;;4.75;4.55;;;;;;;10.89;97.91;101372.81;4424033;32;20073;-67
2021/08/17 04:17:54;;;;;;;4.70;4.50;;;;;;;10.90;97.95;101364.00;4408190;32;20086;-68
2021/08/17 04:20:19;;;;;;;4.90;4.70;;;;;;;10.87;98.11;101357.12;4440383;32;20072;-68
2021/08/17 04:22:44;;;;;;;7.05;6.75;;;;;;;10.90;97.51;101361.38;4424053;31;21328;-67
2021/08/17 04:25:10;;;;;;;4.82;4.62;;;;;;;10.95;98.32;101359.44;4413015;32;20075;-68
2021/08/17 04:27:35;;;;;;;6.45;6.15;;;;;;;10.98;98.23;101356.66;4417523;32;20088;-68
2021/08/17 04:30:01;;;;;;;4.75;4.55;;;;;;;11.07;97.70;101364.16;4418774;32;20791;-69
2021/08/17 04:32:26;;;;;;;4.57;4.37;;;;;;;11.17;97.22;101373.31;4430624;32;20131;-67
2021/08/17 04:34:51;;;;;;;5.07;4.87;;;;;;;11.20;97.57;101368.84;4400541;32;20072;-69
2021/08/17 04:37:17;;;;;;;9.15;4.62;;;;;;;11.27;97.08;101363.28;4419794;32;20079;-69
2021/08/17 04:39:42;;;;;;;7.45;7.12;;;;;;;11.35;96.59;101365.56;4412565;32;20091;-68
2021/08/17 04:42:07;;;;;;;4.55;4.35;;;;;;;11.40;96.71;101381.12;4421565;32;20072;-68
2021/08/17 04:44:33;;;;;;;4.50;4.30;;;;;;;11.47;97.05;101396.53;4427535;32;20108;-69
2021/08/17 04:46:59;;;;;;;5.18;4.93;;;;;;;11.53;96.83;101380.50;4420201;32;20073;-68
2021/08/17 04:49:24;;;;;;;5.80;5.50;;;;;;;11.65;96.57;101383.50;4409071;32;20064;-68
2021/08/17 04:51:49;;;;;;;6.25;5.95;;;;;;;11.72;95.67;101384.91;4419630;32;20087;-65
2021/08/17 04:54:15;;;;;;;4.40;4.20;;;;;;;11.90;95.05;101386.72;4399488;32;20751;-69
2021/08/17 04:56:40;;;;;;;6.80;6.50;;;;;;;12.07;94.15;101385.09;4408457;32;20073;-70
2021/08/17 04:59:05;;;;;;;4.90;4.70;;;;;;;12.12;94.01;101386.56;4416771;32;20069;-69
2021/08/17 05:01:31;;;;;;;20.73;19.73;;;;;;;12.25;93.05;101385.97;4348022;32;20958;-70
2021/08/17 05:03:57;;;;;;;5.15;4.95;;;;;;;12.42;92.40;101390.44;4392847;32;20084;-68
2021/08/17 05:06:23;;;;;;;5.57;5.20;;;;;;;12.54;91.50;101385.41;4419096;32;20069;-69
2021/08/17 05:08:48;;;;;;;7.72;7.32;;;;;;;12.82;90.82;101399.81;4413115;32;20073;-69
2021/08/17 05:11:13;;;;;;;4.70;4.50;;;;;;;13.01;89.73;101401.53;4408238;32;20864;-68
2021/08/17 05:13:39;;;;;;;5.35;5.12;;;;;;;13.20;88.73;101410.19;4409375;32;20115;-69
2021/08/17 05:16:04;;;;;;;4.93;4.72;;;;;;;13.43;86.94;101398.50;4408227;32;20083;-68
2021/08/17 05:18:32;;;;;;;5.50;5.30;;;;;;;13.69;85.62;101412.06;4408540;32;20190;-69
2021/08/17 05:21:01;;;;;;;4.87;4.68;;;;;;;13.76;84.50;101400.25;4401901;32;20930;-70
2021/08/17 05:23:27;;;;;;;6.07;5.70;;;;;;;13.90;84.13;101407.41;4428958;32;20117;-69
2021/08/17 05:25:52;;;;;;;5.43;5.15;;;;;;;13.76;83.82;101403.72;4422674;32;20172;-69
2021/08/17 05:28:18;;;;;;;5.28;5.00;;;;;;;13.50;83.61;101396.37;4436971;32;20129;-69
2021/08/17 05:30:43;;;;;;;7.37;6.87;;;;;;;13.26;84.38;101396.69;4424021;32;20072;-70
2021/08/17 05:33:08;;;;;;;5.43;5.03;;;;;;;13.03;85.71;101390.00;4437574;32;20096;-68
2021/08/17 05:35:34;;;;;;;5.28;5.07;;;;;;;12.86;86.53;101395.25;4437778;32;20408;-67
2021/08/17 05:37:59;;;;;;;5.18;4.95;;;;;;;12.78;87.15;101387.75;4431849;32;20075;-68
2021/08/17 05:40:24;;;;;;;5.00;4.80;;;;;;;12.70;87.64;101398.66;4423077;32;20624;-68
2021/08/17 05:42:50;;;;;;;5.93;5.62;;;;;;;12.62;88.17;101400.81;4429430;32;20715;-68
2021/08/17 05:45:15;;;;;;;4.82;4.62;;;;;;;11.17;88.53;101181.56;4420251;32;20075;-69
2021/08/17 05:47:43;;;;;;;7.80;7.25;;;;;;;12.60;89.31;101407.94;4418217;32;20072;-68
2021/08/17 05:50:08;;;;;;;5.37;5.18;;;;;;;12.62;89.27;101398.19;4418473;32;20064;-66
2021/08/17 05:52:37;;;;;;;4.90;4.65;;;;;;;12.83;89.25;101416.47;4417103;32;20368;-68
2021/08/17 05:55:02;;;;;;;5.00;4.80;;;;;;;12.94;89.02;101422.06;4419457;32;20235;-71
2021/08/17 05:57:28;;;;;;;5.10;4.90;;;;;;;13.02;88.52;101411.16;4416614;32;20112;-69
2021/08/17 05:59:53;;;;;;;5.70;5.40;;;;;;;13.13;88.27;101422.84;4418524;32;20080;-68
2021/08/17 06:02:18;;;;;;;6.18;5.40;;;;;;;13.26;87.84;101430.13;4423058;32;20114;-65
2021/08/17 06:04:44;;;;;;;5.43;5.12;;;;;;;13.34;87.21;101415.63;4427008;32;20079;-67
2021/08/17 06:07:09;;;;;;;5.30;5.10;;;;;;;13.51;87.05;101417.41;4416212;32;20080;-67
2021/08/17 06:09:34;;;;;;;6.10;5.80;;;;;;;13.80;86.73;101412.34;4423102;32;20098;-66
2021/08/17 06:12:01;;;;;;;4.90;4.70;;;;;;;14.23;85.87;101422.31;4408293;32;20823;-66
2021/08/17 06:14:26;;;;;;;5.18;4.93;;;;;;;14.45;83.52;101420.19;4433960;32;20069;-68
2021/08/17 06:16:52;;;;;;;5.35;4.95;;;;;;;14.47;82.52;101386.59;4415264;32;20169;-71
2021/08/17 06:19:17;;;;;;;5.20;5.00;;;;;;;14.85;82.14;101412.59;4427073;32;20103;-71
2021/08/17 06:21:42;;;;;;;7.22;6.93;;;;;;;14.89;80.88;101392.13;4408859;32;20083;-71
2021/08/17 06:24:08;;;;;;;5.32;5.03;;;;;;;14.93;80.92;101405.09;4433656;32;20079;-72
2021/08/17 06:26:33;;;;;;;5.43;5.20;;;;;;;14.97;80.13;101411.03;4409376;32;20072;-71
2021/08/17 06:28:59;;;;;;;5.93;5.57;;;;;;;14.78;80.84;101357.59;4406833;32;20091;-70
2021/08/17 06:31:24;;;;;;;5.10;4.90;;;;;;;15.31;79.92;101398.44;4423100;32;20073;-71
2021/08/17 06:33:53;;;;;;;6.87;6.55;;;;;;;15.48;79.99;101402.69;4409112;32;20076;-69
2021/08/17 06:36:19;;;;;;;5.50;5.30;;;;;;;15.58;78.91;101405.63;4414375;32;20144;-69
2021/08/17 06:38:44;;;;;;;7.40;7.00;;;;;;;15.56;78.39;101395.12;4421183;32;20083;-71
2021/08/17 06:41:10;;;;;;;5.72;5.32;;;;;;;15.91;78.31;101400.88;4435397;32;20072;-71
2021/08/17 06:43:35;;;;;;;5.40;5.10;;;;;;;15.87;77.58;101394.06;4434554;32;20072;-72
2021/08/17 06:46:01;;;;;;;5.60;5.20;;;;;;;15.79;78.05;101393.72;4411681;32;20946;-71
2021/08/17 06:48:26;;;;;;;5.35;5.15;;;;;;;15.75;78.42;101389.56;4403152;32;20644;-71
2021/08/17 06:50:52;;;;;;;6.32;6.03;;;;;;;15.97;78.21;101397.00;4421072;32;20080;-72
2021/08/17 06:53:17;;;;;;;5.35;5.15;;;;;;;15.87;78.16;101394.06;4409260;32;20129;-70
2021/08/17 06:55:43;;;;;;;5.07;4.85;;;;;;;16.00;77.18;101395.97;4434548;32;20080;-71
2021/08/17 06:58:12;;;;;;;6.03;5.57;;;;;;;16.27;77.30;101388.03;4432910;32;20092;-71
2021/08/17 07:00:37;;;;;;;6.03;5.62;;;;;;;16.01;75.80;101323.53;4414265;32;20078;-74
2021/08/17 07:03:04;;;;;;;5.40;5.10;;;;;;;16.61;74.90;101389.28;4402680;32;20072;-71
2021/08/17 07:05:30;;;;;;;5.57;5.28;;;;;;;16.31;75.20;101374.47;4408634;32;20076;-70
2021/08/17 07:07:55;;;;;;;6.25;5.75;;;;;;;16.28;75.60;101387.09;4416981;32;20083;-72
2021/08/17 07:10:20;;;;;;;5.78;5.47;;;;;;;16.23;76.00;101392.66;4422056;32;20676;-73
2021/08/17 07:12:46;;;;;;;5.50;5.28;;;;;;;16.20;76.51;101402.63;4433403;32;20172;-68
2021/08/17 07:15:11;;;;;;;5.20;5.00;;;;;;;16.22;76.92;101400.72;4436107;32;20080;-73
2021/08/17 07:17:37;;;;;;;6.35;5.95;;;;;;;16.16;75.67;101372.84;4423114;32;20581;-71
2021/08/17 07:20:03;;;;;;;6.40;5.80;;;;;;;16.45;75.79;101400.06;4437357;32;20081;-71
2021/08/17 07:22:28;;;;;;;5.32;5.12;;;;;;;16.56;74.92;101388.78;4425993;32;20072;-69
2021/08/17 07:24:54;;;;;;;6.12;5.70;;;;;;;16.76;74.53;101400.69;4421179;32;20533;-71
2021/08/17 07:27:19;;;;;;;5.45;5.15;;;;;;;16.94;73.42;101394.19;4436210;32;20137;-72
2021/08/17 07:29:45;;;;;;;6.03;5.62;;;;;;;16.81;72.95;101397.72;4417108;32;20079;-70
2021/08/17 07:32:10;;;;;;;5.85;5.43;;;;;;;16.80;73.64;101398.66;4433542;32;20077;-70
2021/08/17 07:34:35;;;;;;;5.95;5.65;;;;;;;16.72;74.30;101412.47;4429730;32;20072;-69
2021/08/17 07:37:01;;;;;;;5.85;5.45;;;;;;;16.28;75.03;101416.22;4422115;32;20091;-70
2021/08/17 07:39:27;;;;;;;6.07;5.47;;;;;;;16.17;76.14;101416.91;4418794;32;20579;-69
2021/08/17 07:41:52;;;;;;;5.65;5.35;;;;;;;16.01;76.18;101408.25;4424045;32;20084;-68
2021/08/17 07:44:19;;;;;;;6.15;5.85;;;;;;;15.72;76.62;101397.69;4433984;32;20529;-68
2021/08/17 07:46:44;;;;;;;8.60;8.20;;;;;;;15.91;77.47;101403.53;4431982;32;20490;-68
2021/08/17 07:49:10;;;;;;;8.15;7.75;;;;;;;15.89;76.50;101402.78;4430223;32;20068;-69
2021/08/17 07:51:35;;;;;;;6.32;6.03;;;;;;;15.75;76.71;101357.81;4433052;32;20643;-72
2021/08/17 07:54:00;;;;;;;5.40;5.10;;;;;;;16.24;76.53;101393.53;4411678;32;20060;-72
2021/08/17 07:56:26;;;;;;;5.78;5.47;;;;;;;16.59;75.22;101407.09;4406700;32;20080;-71
2021/08/17 07:58:51;;;;;;;5.93;5.40;;;;;;;16.74;73.63;101416.69;4413526;32;20079;-72
2021/08/17 08:01:16;;;;;;;5.93;5.53;;;;;;;16.96;71.90;101399.37;4437608;32;20083;-70
2021/08/17 08:03:42;;;;;;;8.32;7.82;;;;;;;16.92;72.43;101408.50;4433786;32;20867;-71
2021/08/17 08:06:07;;;;;;;6.40;5.90;;;;;;;17.32;72.46;101413.72;4420798;32;20095;-72
2021/08/17 08:08:33;;;;;;;5.90;5.60;;;;;;;17.56;70.36;101403.22;4437871;32;20205;-69
2021/08/17 08:10:58;;;;;;;5.93;5.53;;;;;;;17.77;69.07;101422.06;4421191;32;20068;-70
2021/08/17 08:13:24;;;;;;;10.18;6.45;;;;;;;17.91;69.85;101427.25;4430186;32;20069;-70
2021/08/17 08:15:49;;;;;;;6.28;5.70;;;;;;;17.66;69.46;101421.97;4430621;32;20083;-70
2021/08/17 08:18:14;;;;;;;5.43;5.22;;;;;;;17.63;69.43;101416.87;4413383;32;21151;-72
2021/08/17 08:20:40;;;;;;;5.70;5.40;;;;;;;17.73;69.54;101407.31;4432133;32;20998;-72
2021/08/17 08:23:06;;;;;;;6.10;5.75;;;;;;;17.50;69.03;101414.22;4420171;32;20068;-70
2021/08/17 08:25:32;;;;;;;5.65;5.35;;;;;;;17.64;69.34;101407.94;4435248;32;20088;-71
2021/08/17 08:27:57;;;;;;;6.40;6.10;;;;;;;17.82;68.76;101392.53;4419812;32;20198;-69
2021/08/17 08:30:22;;;;;;;6.65;6.25;;;;;;;17.74;68.83;101379.81;4434346;32;20080;-69
2021/08/17 08:32:48;;;;;;;7.93;7.43;;;;;;;17.96;67.94;101376.50;4421831;31;20075;-71
2021/08/17 08:35:13;;;;;;;5.90;5.60;;;;;;;17.95;68.08;101377.44;4439628;32;20149;-72
2021/08/17 08:37:38;;;;;;;5.90;5.60;;;;;;;18.01;67.72;101389.44;4429888;32;20068;-71
2021/08/17 08:40:05;;;;;;;6.30;5.90;;;;;;;18.22;67.14;101389.66;4430758;32;20095;-72
2021/08/17 08:42:30;;;;;;;6.47;6.10;;;;;;;18.20;66.75;101388.91;4421437;32;20249;-70
2021/08/17 08:44:55;;;;;;;7.07;6.50;;;;;;;18.25;66.61;101381.47;4430386;32;20080;-71
2021/08/17 08:47:21;;;;;;;5.10;4.90;;;;;;;18.61;66.23;101379.69;4422728;32;20099;-71
2021/08/17 08:49:48;;;;;;;6.53;6.12;;;;;;;18.53;65.00;101386.44;4446314;32;20667;-71
2021/08/17 08:52:14;;;;;;;6.65;6.25;;;;;;;18.43;65.92;101397.88;4420370;32;20076;-69
2021/08/17 08:54:39;;;;;;;7.37;6.97;;;;;;;18.64;64.72;101377.66;4434493;32;20072;-69
2021/08/17 08:57:04;;;;;;;5.30;5.10;;;;;;;19.13;64.78;101392.53;4416476;32;20068;-68
2021/08/17 08:59:30;;;;;;;5.90;5.60;;;;;;;19.58;61.83;101388.22;4433828;32;20065;-68
2021/08/17 09:02:08;;;;;;;6.80;6.35;;;;;;;19.88;60.85;101388.44;4419202;32;20084;-71
2021/08/17 09:04:34;;;;;;;6.37;6.07;;;;;;;19.52;61.98;101397.53;4434850;32;20231;-70
2021/08/17 09:06:59;;;;;;;8.73;5.60;;;;;;;19.03;63.04;101394.22;4420560;32;20519;-75
2021/08/17 09:09:25;;;;;;;5.65;5.35;;;;;;;19.08;63.36;101407.16;4433204;32;20083;-75
2021/08/17 09:11:54;;;;;;;6.75;6.05;;;;;;;19.17;63.33;101416.28;4431947;32;20503;-73
2021/08/17 09:14:26;;;;;;;6.43;6.03;;;;;;;19.16;62.82;101419.87;4421226;32;20276;-74
2021/08/17 09:17:10;;;;;;;6.25;5.95;;;;;;;18.91;62.94;101405.81;4417770;32;20625;-75
2021/08/17 09:19:38;;;;;;;7.18;6.80;;;;;;;18.94;62.93;101408.22;4432416;32;20129;-75
2021/08/17 09:22:16;;;;;;;8.07;6.87;;;;;;;18.96;62.59;101398.31;4440486;32;20163;-75
2021/08/17 09:24:42;;;;;;;7.20;6.78;;;;;;;18.70;63.46;101403.78;4456257;32;20076;-75
2021/08/17 09:27:27;;;;;;;6.32;5.82;;;;;;;18.49;63.28;101416.03;4418492;32;20328;-74
2021/08/17 09:30:06;;;;;;;6.55;6.15;;;;;;;18.10;64.28;101416.19;4405980;32;20120;-74
2021/08/17 09:32:31;;;;;;;7.15;6.65;;;;;;;18.11;64.89;101404.56;4448380;32;20071;-74
2021/08/17 09:35:02;;;;;;;6.62;6.12;;;;;;;18.12;65.12;101400.09;4420692;32;20856;-74
2021/08/17 09:37:29;;;;;;;5.97;5.68;;;;;;;18.42;64.34;101406.78;4421504;32;20174;-74
2021/08/17 09:39:55;;;;;;;6.43;6.03;;;;;;;18.40;63.95;101382.13;4413936;32;20498;-74
2021/08/17 09:42:27;;;;;;;5.50;5.30;;;;;;;18.47;62.69;101380.72;4432068;32;20075;-71
2021/08/17 09:45:11;;;;;;;;;;;;;;;18.70;63.16;101377.19;4425102;32;20210;-72
2021/08/17 09:47:38;;;;;;;6.25;5.72;;;;;;;18.47;62.11;101367.44;4441097;32;20047;-72
2021/08/17 09:50:22;;;;;;;6.40;5.90;;;;;;;18.49;62.29;101374.31;4426495;32;20083;-74
2021/08/17 09:52:48;;;;;;;6.35;6.05;;;;;;;18.58;63.41;101371.94;4447829;32;20109;-73
2021/08/17 09:55:20;;;;;;;6.00;5.60;;;;;;;18.68;61.25;101376.47;4417394;32;20071;-73
2021/08/17 09:57:46;;;;;;;8.00;7.57;;;;;;;18.92;60.53;101359.63;4431374;32;20072;-73
2021/08/17 10:00:15;;;;;;;6.03;5.62;;;;;;;18.59;61.98;101365.69;4424622;32;20164;-73
2021/08/17 10:02:44;;;;;;;7.93;7.32;;;;;;;18.73;61.74;101387.59;4419519;31;20068;-73
2021/08/17 10:05:14;;;;;;;7.00;6.37;;;;;;;18.77;61.21;101395.34;4423048;32;20072;-74
2021/08/17 10:07:39;;;;;;;8.30;7.78;;;;;;;18.88;61.72;101385.63;4420445;32;20087;-71
2021/08/17 10:10:05;;;;;;;5.85;5.55;;;;;;;18.47;61.80;101402.84;4435969;32;20104;-71
2021/08/17 10:12:31;;;;;;;5.78;5.47;;;;;;;18.39;61.74;101429.13;4422335;32;20072;-71
2021/08/17 10:14:56;;;;;;;6.05;5.75;;;;;;;18.49;61.39;101424.00;4424340;32;20194;-72
2021/08/17 10:17:22;;;;;;;5.50;5.10;;;;;;;18.53;61.93;101423.63;4432909;32;20072;-73
2021/08/17 10:19:48;;;;;;;7.82;7.20;;;;;;;18.42;61.35;101425.38;4429770;32;20083;-70
2021/08/17 10:22:13;;;;;;;5.50;5.25;;;;;;;18.51;61.21;101411.44;4418623;32;20679;-70
2021/08/17 10:24:40;;;;;;;7.85;7.37;;;;;;;18.30;60.67;101406.75;4419022;32;20063;-69
2021/08/17 10:27:21;;;;;;;5.80;5.50;;;;;;;18.28;60.55;101394.53;4434503;32;20210;-70
2021/08/17 10:29:53;;;;;;;7.00;6.70;;;;;;;18.01;60.29;101390.28;4435032;32;20079;-70
2021/08/17 10:32:48;;;;;;;5.60;5.30;;;;;;;18.17;61.19;101382.03;4445539;32;20618;-69
2021/08/17 10:35:34;;;;;;;6.07;5.78;;;;;;;18.09;60.49;101384.41;4458100;31;20174;-69
2021/08/17 10:38:12;;;;;;;6.00;5.60;;;;;;;18.10;59.89;101391.41;4451382;32;22429;-69
2021/08/17 10:40:52;;;;;;;7.43;7.03;;;;;;;18.01;61.46;101394.75;4454365;32;20676;-66
2021/08/17 10:43:50;;;;;;;5.75;5.43;;;;;;;18.03;59.97;101363.59;4439852;32;20180;-69
2021/08/17 10:46:16;;;;;;;6.07;5.68;;;;;;;18.24;59.79;101382.41;4450368;31;20068;-72
2021/08/17 10:48:51;;;;;;;7.80;7.40;;;;;;;17.74;59.75;101292.22;4429430;32;20087;-73
2021/08/17 10:51:19;;;;;;;6.10;5.80;;;;;;;18.27;60.42;101379.56;4463724;32;20250;-71
2021/08/17 10:54:03;;;;;;;8.30;7.60;;;;;;;18.54;59.94;101366.88;4446081;32;20191;-72
2021/08/17 10:56:30;;;;;;;6.03;5.72;;;;;;;18.51;59.77;101367.09;4451301;32;20072;-74
2021/08/17 10:58:58;;;;;;;5.90;5.60;;;;;;;18.65;58.62;101376.69;4419815;32;20090;-74
2021/08/17 11:01:29;;;;;;;5.75;5.43;;;;;;;18.59;59.47;101366.50;4435719;32;20558;-74
2021/08/17 11:03:55;;;;;;;6.05;5.75;;;;;;;18.43;60.19;101364.16;4444423;32;20672;-72
2021/08/17 11:06:39;;;;;;;5.97;5.68;;;;;;;18.40;61.45;101371.50;4422187;32;20164;-73
2021/08/17 11:09:37;;;;;;;5.90;5.60;;;;;;;18.43;60.92;101356.19;4446814;32;20218;-69
2021/08/17 11:12:09;;;;;;;5.40;5.10;;;;;;;18.19;61.99;101366.81;4447997;32;20603;-74
2021/08/17 11:14:41;;;;;;;;;;;;;;;17.91;60.40;101363.53;4417967;32;20092;-74
2021/08/17 11:17:11;;;;;;;5.87;5.50;;;;;;;17.66;61.52;101379.50;4448256;32;20105;-73
2021/08/17 11:19:38;;;;;;;7.35;6.75;;;;;;;17.50;60.33;101374.41;4422491;32;20104;-71
2021/08/17 11:22:07;;;;;;;6.20;5.80;;;;;;;17.37;61.71;101379.75;4421774;32;20250;-71
2021/08/17 11:24:34;;;;;;;5.40;5.10;;;;;;;17.03;62.53;101382.09;4425617;32;20091;-71